Time;durP1;ratioP1;P1;durP2;ratioP2;P2;SDS_P1;SDS_P2;PMS_P1;PMS_P2;Temp;Humidity;BMP_temperature;BMP_pressure;BME280_temperature;BME280_humidity;BME280_pressure;Samples;Min_cycle;Max_cycle;Signal;HPM_P1;HPM_P2
2022/04/27 00:01:56;;;;;;;10.40;6.35;;;8.90;99.90;;;;;;5074638;28;20221;-43
2022/04/27 00:04:21;;;;;;;9.82;5.45;;;8.90;99.90;;;;;;5074381;28;20173;-42
2022/04/27 00:06:47;;;;;;;14.05;6.22;;;8.90;99.90;;;;;;5074697;28;20275;-43
2022/04/27 00:09:13;;;;;;;10.50;6.55;;;8.90;99.90;;;;;;5074456;28;20235;-44
2022/04/27 00:11:39;;;;;;;9.30;6.28;;;8.90;99.90;;;;;;5074315;28;20667;-47
2022/04/27 00:14:04;;;;;;;8.15;6.05;;;8.90;99.90;;;;;;5074304;28;20170;-41
2022/04/27 00:16:30;;;;;;;11.13;6.32;;;8.90;99.90;;;;;;5074488;28;20213;-40
2022/04/27 00:18:56;;;;;;;12.07;7.03;;;8.90;99.90;;;;;;5074663;28;20166;-43
2022/04/27 00:21:22;;;;;;;9.80;6.82;;;8.90;99.90;;;;;;5072993;28;20227;-42
2022/04/27 00:23:47;;;;;;;9.75;6.57;;;8.90;99.90;;;;;;5073995;28;20245;-42
2022/04/27 00:26:13;;;;;;;7.32;6.38;;;10.10;99.90;;;;;;5074074;28;20166;-47
2022/04/27 00:28:39;;;;;;;8.18;6.45;;;8.90;99.90;;;;;;5074359;28;20170;-45
2022/04/27 00:31:04;;;;;;;11.63;7.15;;;8.90;99.90;;;;;;5074309;28;20170;-47
2022/04/27 00:33:31;;;;;;;11.70;6.72;;;8.80;99.90;;;;;;5074233;28;20637;-48
2022/04/27 00:35:56;;;;;;;9.65;7.00;;;8.80;99.90;;;;;;5074172;28;20235;-49
2022/04/27 00:38:22;;;;;;;16.27;6.60;;;8.80;99.90;;;;;;5073843;28;20202;-48
2022/04/27 00:40:47;;;;;;;10.60;7.30;;;8.80;99.90;;;;;;5073899;28;20185;-44
2022/04/27 00:43:14;;;;;;;10.20;6.63;;;8.90;99.90;;;;;;5073822;28;20174;-47
2022/04/27 00:45:40;;;;;;;9.57;7.22;;;8.90;99.90;;;;;;5073951;28;20255;-46
2022/04/27 00:48:06;;;;;;;10.18;6.80;;;9.00;99.90;;;;;;5073732;28;20210;-45
2022/04/27 00:50:32;;;;;;;9.35;6.47;;;8.90;99.90;;;;;;5073612;28;20170;-46
2022/04/27 00:52:59;;;;;;;8.70;6.07;;;8.90;99.90;;;;;;5073923;28;20158;-47
2022/04/27 00:55:25;;;;;;;8.80;6.57;;;8.90;99.90;;;;;;5073741;28;20275;-45
2022/04/27 00:57:51;;;;;;;7.45;6.20;;;8.80;99.90;;;;;;5073465;28;20201;-48
2022/04/27 01:00:17;;;;;;;11.68;6.95;;;8.80;99.90;;;;;;5073682;28;20174;-46
2022/04/27 01:02:43;;;;;;;11.68;7.25;;;8.70;99.90;;;;;;5073216;28;20229;-46
2022/04/27 01:05:11;;;;;;;12.00;6.45;;;8.70;99.90;;;;;;5073387;28;20241;-44
2022/04/27 01:07:41;;;;;;;11.88;7.35;;;8.70;99.90;;;;;;5073654;28;20181;-49
2022/04/27 01:10:08;;;;;;;12.07;6.90;;;8.60;99.90;;;;;;5073359;28;20257;-48
2022/04/27 01:12:35;;;;;;;10.68;7.88;;;8.60;99.90;;;;;;5073246;28;20166;-48
2022/04/27 01:15:01;;;;;;;11.88;7.53;;;8.60;99.90;;;;;;5072659;28;20606;-46
2022/04/27 01:17:26;;;;;;;11.10;7.22;;;8.60;99.90;;;;;;5073555;28;20158;-41
2022/04/27 01:19:52;;;;;;;11.30;7.05;;;8.60;99.90;;;;;;5073096;28;20162;-42
2022/04/27 01:22:18;;;;;;;10.57;7.43;;;8.60;99.90;;;;;;5073007;28;20162;-43
2022/04/27 01:24:44;;;;;;;13.30;6.65;;;8.60;99.90;;;;;;5073154;28;20616;-43
2022/04/27 01:27:10;;;;;;;9.57;7.25;;;8.70;99.90;;;;;;5073172;28;20182;-42
2022/04/27 01:29:36;;;;;;;9.60;7.13;;;8.60;99.90;;;;;;5072878;28;20177;-43
2022/04/27 01:32:02;;;;;;;9.40;6.97;;;8.60;99.90;;;;;;5072857;28;20215;-43
2022/04/27 01:34:28;;;;;;;9.70;7.03;;;8.60;99.90;;;;;;5073000;28;20177;-44
2022/04/27 01:36:54;;;;;;;10.13;7.32;;;8.60;99.90;;;;;;5072918;28;20209;-45
2022/04/27 01:39:23;;;;;;;9.95;7.07;;;8.60;99.90;;;;;;5072637;28;20173;-46
2022/04/27 01:41:49;;;;;;;8.80;7.10;;;8.60;99.90;;;;;;5072908;28;20567;-42
2022/04/27 01:44:15;;;;;;;12.68;7.57;;;8.50;99.90;;;;;;5072600;28;20165;-43
2022/04/27 01:46:40;;;;;;;10.73;7.47;;;8.30;99.90;;;;;;5072514;28;20174;-44
2022/04/27 01:49:06;;;;;;;10.02;7.80;;;8.30;99.90;;;;;;5072745;28;20189;-42
2022/04/27 01:54:16;;;;;;;11.52;7.82;;;8.20;99.90;;;;;;5073580;28;20281;-42
2022/04/27 01:56:46;;;;;;;11.25;7.82;;;8.30;99.90;;;;;;5092621;28;20683;-43
2022/04/27 01:59:12;;;;;;;13.75;7.60;;;8.30;99.90;;;;;;5092702;28;20251;-42
2022/04/27 02:01:38;;;;;;;12.25;7.57;;;8.20;99.90;;;;;;5092611;28;20213;-42
2022/04/27 02:04:04;;;;;;;9.80;7.53;;;8.30;99.90;;;;;;5092557;28;20529;-42
2022/04/27 02:06:29;;;;;;;12.73;8.20;;;8.30;99.90;;;;;;5074673;28;20181;-42
2022/04/27 02:08:55;;;;;;;16.00;8.52;;;8.30;99.90;;;;;;5072830;28;20177;-42
2022/04/27 02:11:24;;;;;;;11.80;8.27;;;8.30;99.90;;;;;;5072201;28;20161;-46
2022/04/27 02:13:54;;;;;;;11.82;8.52;;;8.20;99.90;;;;;;5072432;28;20176;-45
2022/04/27 02:16:21;;;;;;;12.18;8.68;;;8.10;99.90;;;;;;5072549;28;20216;-46
2022/04/27 02:18:48;;;;;;;9.70;8.43;;;8.20;99.90;;;;;;5072106;28;20166;-42
2022/04/27 02:21:14;;;;;;;13.93;9.23;;;8.20;99.90;;;;;;5072289;28;20173;-42
2022/04/27 02:23:40;;;;;;;11.73;7.97;;;8.20;99.90;;;;;;5070796;28;20162;-42
2022/04/27 02:26:05;;;;;;;10.27;7.85;;;8.20;99.90;;;;;;5069821;28;20239;-42
2022/04/27 02:28:31;;;;;;;14.80;8.10;;;8.20;99.90;;;;;;5071895;28;20162;-42
2022/04/27 02:30:56;;;;;;;13.23;8.60;;;8.10;99.90;;;;;;5072309;28;20162;-45
2022/04/27 02:33:22;;;;;;;10.60;7.80;;;8.20;99.90;;;;;;5072036;28;20246;-43
2022/04/27 02:35:47;;;;;;;14.82;9.30;;;8.10;99.90;;;;;;5071909;28;20674;-42
2022/04/27 02:38:13;;;;;;;12.20;8.48;;;8.00;99.90;;;;;;5072017;28;20236;-42
2022/04/27 02:40:38;;;;;;;12.68;8.13;;;8.00;99.90;;;;;;5071911;28;20168;-42
2022/04/27 02:43:04;;;;;;;18.77;8.95;;;8.00;99.90;;;;;;5071844;28;20348;-42
2022/04/27 02:45:29;;;;;;;12.27;8.30;;;7.90;99.90;;;;;;5071820;28;20174;-42
2022/04/27 02:47:56;;;;;;;15.15;8.65;;;7.90;99.90;;;;;;5072165;28;20192;-42
2022/04/27 02:53:05;;;;;;;12.38;9.00;;;7.90;99.90;;;;;;5084341;28;20607;-41
2022/04/27 02:55:31;;;;;;;15.35;9.23;;;8.00;99.90;;;;;;5092081;28;20199;-44
2022/04/27 02:57:56;;;;;;;14.63;8.88;;;7.90;99.90;;;;;;5092459;28;20165;-42
2022/04/27 03:00:22;;;;;;;15.32;9.82;;;8.00;99.90;;;;;;5091881;28;20169;-41
2022/04/27 03:02:47;;;;;;;13.07;9.07;;;7.90;99.90;;;;;;5091829;28;20213;-42
2022/04/27 03:05:13;;;;;;;17.70;8.40;;;7.80;99.90;;;;;;5091936;28;20215;-43
2022/04/27 03:07:38;;;;;;;14.30;8.90;;;7.80;99.90;;;;;;5091820;28;20536;-42
2022/04/27 03:10:05;;;;;;;15.18;9.15;;;7.80;99.90;;;;;;5092040;28;20234;-42
2022/04/27 03:12:30;;;;;;;15.48;9.75;;;7.70;99.90;;;;;;5091689;28;20703;-41
2022/04/27 03:14:56;;;;;;;13.27;9.27;;;7.60;99.90;;;;;;5092227;28;20197;-42
2022/04/27 03:17:21;;;;;;;16.88;10.10;;;7.50;99.90;;;;;;5091710;28;20638;-41
2022/04/27 03:19:47;;;;;;;11.20;9.23;;;7.60;99.90;;;;;;5091761;28;20169;-42
2022/04/27 03:22:12;;;;;;;11.65;8.65;;;7.50;99.90;;;;;;5091560;28;20162;-41
2022/04/27 03:24:38;;;;;;;16.02;9.45;;;7.60;99.90;;;;;;5091680;28;20174;-41
2022/04/27 03:27:05;;;;;;;12.82;8.68;;;7.60;99.90;;;;;;5091631;28;20177;-42
2022/04/27 03:29:30;;;;;;;13.95;9.32;;;7.60;99.90;;;;;;5091834;28;20169;-40
2022/04/27 03:31:56;;;;;;;14.52;9.25;;;7.50;99.90;;;;;;5091914;28;20244;-42
2022/04/27 03:34:21;;;;;;;12.90;8.93;;;7.50;99.90;;;;;;5091523;28;20161;-42
2022/04/27 03:36:47;;;;;;;11.77;9.00;;;7.50;99.90;;;;;;5092243;28;20201;-42
2022/04/27 03:39:13;;;;;;;13.35;8.98;;;7.40;99.90;;;;;;5095253;28;20544;-41
2022/04/27 03:41:38;;;;;;;15.50;9.50;;;7.40;99.90;;;;;;5095188;28;20173;-42
2022/04/27 03:44:04;;;;;;;13.80;9.75;;;7.30;99.90;;;;;;5095219;28;20162;-41
2022/04/27 03:46:30;;;;;;;15.70;10.13;;;7.30;99.90;;;;;;5095405;28;20172;-46
2022/04/27 03:48:56;;;;;;;14.90;10.82;;;7.30;99.90;;;;;;5095577;28;20169;-42
2022/04/27 03:51:22;;;;;;;14.52;10.23;;;7.30;99.90;;;;;;5093790;28;20168;-43
2022/04/27 03:53:47;;;;;;;15.80;10.20;;;7.20;99.90;;;;;;5095009;28;20184;-42
2022/04/27 03:56:13;;;;;;;16.75;10.50;;;7.20;99.90;;;;;;5094859;28;20205;-42
2022/04/27 03:58:38;;;;;;;13.43;9.80;;;7.20;99.90;;;;;;5094911;28;20173;-42
2022/04/27 04:01:04;;;;;;;14.18;9.93;;;7.20;99.90;;;;;;5094885;28;20180;-42
2022/04/27 04:03:29;;;;;;;15.55;10.38;;;7.20;99.90;;;;;;5094707;28;20216;-45
2022/04/27 04:05:55;;;;;;;12.43;10.77;;;7.20;99.90;;;;;;5095313;28;20216;-48
2022/04/27 04:08:20;;;;;;;13.50;10.05;;;7.30;99.90;;;;;;5094722;28;20189;-48
2022/04/27 04:10:46;;;;;;;17.85;10.88;;;7.30;99.90;;;;;;5094713;28;20177;-46
2022/04/27 04:13:12;;;;;;;22.27;11.32;;;7.40;99.90;;;;;;5094637;28;20157;-46
2022/04/27 04:15:38;;;;;;;15.70;11.52;;;7.40;99.90;;;;;;5088879;28;20198;-45
2022/04/27 04:18:07;;;;;;;18.88;11.32;;;7.50;99.90;;;;;;5074288;28;20592;-45
2022/04/27 04:20:33;;;;;;;17.50;10.40;;;7.60;99.90;;;;;;5074375;28;20171;-42
2022/04/27 04:22:58;;;;;;;15.00;11.18;;;7.50;99.90;;;;;;5074416;28;20181;-43
2022/04/27 04:28:50;;;;;;;18.48;10.85;;;7.60;99.90;;;;;;5074201;28;20172;-43
2022/04/27 04:30:59;;;;;;;15.20;9.93;;;7.70;99.90;;;;;;5071249;28;20182;-45
2022/04/27 04:33:25;;;;;;;12.73;9.52;;;7.70;99.90;;;;;;5074331;28;20189;-44
2022/04/27 04:35:51;;;;;;;19.13;10.73;;;7.80;99.90;;;;;;5073940;28;20659;-44
2022/04/27 04:38:18;;;;;;;18.25;10.95;;;7.70;99.90;;;;;;5074169;28;20177;-44
2022/04/27 04:40:43;;;;;;;16.02;9.95;;;7.80;99.90;;;;;;5073895;28;20198;-45
2022/04/27 04:43:09;;;;;;;15.38;10.10;;;7.80;99.90;;;;;;5073856;28;20252;-46
2022/04/27 04:45:34;;;;;;;18.10;10.60;;;7.90;99.90;;;;;;5073726;28;20251;-47
2022/04/27 04:48:00;;;;;;;14.70;11.27;;;7.90;99.90;;;;;;5073070;28;20174;-46
2022/04/27 04:50:25;;;;;;;18.73;11.38;;;8.00;99.90;;;;;;5073739;28;20243;-49
2022/04/27 04:52:51;;;;;;;16.17;10.95;;;8.00;99.90;;;;;;5073717;28;20166;-49
2022/04/27 04:55:17;;;;;;;16.17;10.82;;;8.10;99.90;;;;;;5073521;28;20209;-46
2022/04/27 04:57:42;;;;;;;13.02;9.73;;;8.20;99.90;;;;;;5073723;28;20178;-47
2022/04/27 05:00:09;;;;;;;14.18;9.73;;;8.20;99.90;;;;;;5073537;28;20162;-48
2022/04/27 05:02:35;;;;;;;15.52;10.23;;;8.30;99.90;;;;;;5073394;28;20225;-46
2022/04/27 05:05:05;;;;;;;15.50;10.23;;;8.40;99.90;;;;;;5073395;28;20170;-46
2022/04/27 05:07:34;;;;;;;15.35;9.45;;;8.50;99.90;;;;;;5073313;28;20166;-46
2022/04/27 05:09:59;;;;;;;14.88;9.95;;;8.50;99.90;;;;;;5082396;28;20188;-44
2022/04/27 05:12:25;;;;;;;12.82;10.05;;;8.60;99.90;;;;;;5080388;28;20268;-49
2022/04/27 05:14:52;;;;;;;11.95;8.85;;;8.60;99.90;;;;;;5073080;28;20177;-46
2022/04/27 05:17:17;;;;;;;12.93;9.02;;;8.70;99.90;;;;;;5072770;28;20538;-45
2022/04/27 05:19:43;;;;;;;14.35;9.77;;;8.70;99.90;;;;;;5073095;28;20162;-44
2022/04/27 05:22:08;;;;;;;14.80;10.25;;;8.80;99.90;;;;;;5073243;28;20177;-45
2022/04/27 05:24:34;;;;;;;19.48;9.38;;;8.80;99.90;;;;;;5073201;28;20177;-47
2022/04/27 05:27:00;;;;;;;12.15;9.20;;;8.90;99.90;;;;;;5072901;28;20173;-48
2022/04/27 05:32:10;;;;;;;13.18;8.32;;;9.00;99.90;;;;;;5072698;28;20173;-46
2022/04/27 05:34:36;;;;;;;15.85;9.70;;;9.10;99.90;;;;;;5072740;28;20174;-45
2022/04/27 05:37:02;;;;;;;12.10;9.55;;;9.20;99.90;;;;;;5072719;28;20287;-49
2022/04/27 05:39:28;;;;;;;12.80;9.00;;;9.30;99.90;;;;;;5073522;28;20170;-46
2022/04/27 05:41:53;;;;;;;14.10;9.48;;;9.40;99.90;;;;;;5073477;28;20638;-46
2022/04/27 05:44:24;;;;;;;14.52;8.52;;;9.40;99.90;;;;;;5072586;28;20308;-47
2022/04/27 05:46:53;;;;;;;11.77;8.02;;;9.40;99.90;;;;;;5072780;28;20166;-48
2022/04/27 05:49:20;;;;;;;11.93;8.65;;;9.50;99.90;;;;;;5072464;28;20201;-48
2022/04/27 05:51:46;;;;;;;15.27;9.07;;;9.40;99.90;;;;;;5072643;28;20201;-47
2022/04/27 05:54:15;;;;;;;14.40;9.18;;;9.40;99.90;;;;;;5072647;28;20249;-44
2022/04/27 05:56:41;;;;;;;14.25;8.98;;;9.40;99.90;;;;;;5072243;28;20198;-43
2022/04/27 05:59:10;;;;;;;10.82;8.65;;;9.40;99.90;;;;;;5072209;28;20173;-43
2022/04/27 06:01:37;;;;;;;12.48;8.95;;;9.40;99.90;;;;;;5071990;28;20698;-45
2022/04/27 06:04:03;;;;;;;12.38;8.98;;;9.40;99.90;;;;;;5072163;28;20166;-42
2022/04/27 06:06:29;;;;;;;13.27;8.77;;;9.40;99.90;;;;;;5072213;28;20174;-42
2022/04/27 06:08:54;;;;;;;13.57;9.02;;;9.40;99.90;;;;;;5072818;28;20170;-42
2022/04/27 06:11:20;;;;;;;13.48;8.88;;;9.50;99.90;;;;;;5072239;28;20166;-44
2022/04/27 06:13:47;;;;;;;14.55;9.27;;;9.60;99.90;;;;;;5072112;28;20645;-42
2022/04/27 06:16:15;;;;;;;16.27;9.82;;;9.70;99.90;;;;;;5072071;28;20205;-43
2022/04/27 06:18:42;;;;;;;15.98;9.38;;;9.70;99.90;;;;;;5072366;28;20242;-44
2022/04/27 06:21:08;;;;;;;14.55;9.50;;;9.80;99.90;;;;;;5072095;28;20173;-42
2022/04/27 06:23:35;;;;;;;16.20;9.73;;;9.90;99.90;;;;;;5072342;28;20177;-43
2022/04/27 06:26:00;;;;;;;16.02;8.88;;;9.90;99.90;;;;;;5072091;28;20166;-46
2022/04/27 06:28:26;;;;;;;13.35;8.80;;;9.90;99.90;;;;;;5072328;28;20173;-43
2022/04/27 06:30:51;;;;;;;15.73;9.88;;;9.80;99.90;;;;;;5072013;28;20224;-43
2022/04/27 06:33:18;;;;;;;12.73;9.80;;;9.90;99.90;;;;;;5071920;28;20166;-45
2022/04/27 06:35:43;;;;;;;13.52;9.63;;;10.00;99.90;;;;;;5071815;28;20202;-44
2022/04/27 06:38:09;;;;;;;11.98;8.93;;;10.20;99.90;;;;;;5079362;28;20169;-42
2022/04/27 06:40:34;;;;;;;14.38;10.38;;;10.20;99.90;;;;;;5090821;28;20207;-41
2022/04/27 06:43:00;;;;;;;13.80;9.45;;;10.30;99.90;;;;;;5090615;28;20173;-43
2022/04/27 06:45:27;;;;;;;17.63;10.05;;;10.50;99.90;;;;;;5091156;28;20200;-51
2022/04/27 06:47:56;;;;;;;12.40;9.63;;;10.60;99.90;;;;;;5091103;28;20177;-46
2022/04/27 06:50:21;;;;;;;16.00;9.27;;;10.60;99.90;;;;;;5090665;28;20170;-44
2022/04/27 06:52:47;;;;;;;11.63;8.57;;;10.70;99.90;;;;;;5090608;28;20166;-51
2022/04/27 06:55:13;;;;;;;12.02;8.70;;;10.80;99.90;;;;;;5090769;28;20209;-42
2022/04/27 06:57:39;;;;;;;12.80;8.80;;;10.90;99.90;;;;;;5090595;28;20177;-40
2022/04/27 07:00:05;;;;;;;13.43;8.57;;;11.00;99.90;;;;;;5090264;28;20210;-41
2022/04/27 07:02:32;;;;;;;13.30;8.35;;;11.00;99.90;;;;;;5090289;28;20221;-41
2022/04/27 07:05:01;;;;;;;17.15;8.85;;;11.00;99.90;;;;;;5088783;28;20268;-40
2022/04/27 07:07:27;;;;;;;13.32;8.63;;;10.90;99.90;;;;;;5090912;28;20165;-41
2022/04/27 07:09:53;;;;;;;9.77;8.30;;;10.90;99.90;;;;;;5090342;28;20173;-41
2022/04/27 07:12:19;;;;;;;9.93;7.70;;;11.00;99.90;;;;;;5092317;28;20192;-41
2022/04/27 07:14:46;;;;;;;12.75;8.43;;;11.00;99.90;;;;;;5094242;28;20174;-40
2022/04/27 07:17:12;;;;;;;12.25;8.15;;;11.10;99.90;;;;;;5094209;28;20173;-40
2022/04/27 07:19:37;;;;;;;12.23;7.63;;;11.10;99.90;;;;;;5094538;28;20684;-47
2022/04/27 07:22:03;;;;;;;12.15;7.53;;;11.30;99.90;;;;;;5094054;28;20279;-47
2022/04/27 07:24:29;;;;;;;12.80;7.75;;;11.50;99.90;;;;;;5094072;28;20165;-41
2022/04/27 07:26:56;;;;;;;10.73;8.02;;;11.60;99.90;;;;;;5095613;28;20244;-41
2022/04/27 07:29:22;;;;;;;12.52;7.60;;;11.70;99.90;;;;;;5095428;28;20169;-43
2022/04/27 07:31:47;;;;;;;10.50;6.97;;;11.80;99.90;;;;;;5095290;28;20162;-42
2022/04/27 07:34:13;;;;;;;12.82;7.05;;;11.90;99.90;;;;;;5095268;28;20169;-45
2022/04/27 07:36:39;;;;;;;11.82;7.45;;;11.80;99.90;;;;;;5095234;28;20216;-41
2022/04/27 07:39:05;;;;;;;14.65;7.80;;;12.00;99.90;;;;;;5095029;28;20173;-41
2022/04/27 07:41:32;;;;;;;10.27;7.80;;;12.10;99.90;;;;;;5095305;28;20166;-40
2022/04/27 07:43:57;;;;;;;10.10;6.25;;;12.20;99.90;;;;;;5094054;28;20453;-44
2022/04/27 07:46:23;;;;;;;8.82;5.72;;;12.00;99.90;;;;;;5095536;28;20172;-46
2022/04/27 07:48:49;;;;;;;12.65;6.53;;;12.00;99.90;;;;;;5095039;28;20172;-43
2022/04/27 07:51:14;;;;;;;8.32;6.97;;;12.00;99.90;;;;;;5094949;28;20181;-43
2022/04/27 07:53:40;;;;;;;8.10;6.32;;;12.20;99.90;;;;;;5093584;28;20173;-46
2022/04/27 07:56:05;;;;;;;10.18;6.95;;;12.40;99.90;;;;;;5094898;28;20211;-45
2022/04/27 07:58:31;;;;;;;11.55;6.88;;;12.40;99.90;;;;;;5094796;28;20187;-43
2022/04/27 08:00:57;;;;;;;11.70;6.63;;;12.60;99.90;;;;;;5095163;28;20532;-49
2022/04/27 08:03:23;;;;;;;8.82;6.40;;;12.80;99.90;;;;;;5094964;28;20252;-43
2022/04/27 08:05:49;;;;;;;11.27;6.50;;;13.00;99.90;;;;;;5094853;28;20210;-48
2022/04/27 08:08:15;;;;;;;10.52;6.90;;;13.00;99.90;;;;;;5094899;28;20169;-43
2022/04/27 08:10:40;;;;;;;12.73;6.88;;;13.10;99.90;;;;;;5094784;28;20214;-48
2022/04/27 08:13:06;;;;;;;8.52;5.85;;;13.30;99.90;;;;;;5094689;28;20255;-50
2022/04/27 08:15:31;;;;;;;8.43;6.53;;;13.30;99.90;;;;;;5094569;28;20553;-48
2022/04/27 08:18:02;;;;;;;7.50;6.20;;;13.50;99.90;;;;;;5093585;28;20180;-47
2022/04/27 08:23:32;;;;;;;12.07;6.47;;;13.60;99.90;;;;;;5086886;28;20588;-47
2022/04/27 08:26:02;;;;;;;10.68;6.22;;;13.60;99.90;;;;;;5076846;28;20178;-48
2022/04/27 08:28:28;;;;;;;9.30;6.28;;;13.80;99.90;;;;;;5086388;28;20197;-51
2022/04/27 08:30:54;;;;;;;12.20;6.13;;;13.90;99.90;;;;;;5077780;28;20626;-51
2022/04/27 08:33:20;;;;;;;10.73;5.88;;;13.90;99.90;;;;;;5083348;28;20178;-51
2022/04/27 08:35:47;;;;;;;7.95;5.32;;;14.00;99.90;;;;;;5092898;28;20714;-50
2022/04/27 08:38:13;;;;;;;7.47;6.13;;;13.90;99.90;;;;;;5079916;28;20177;-49
2022/04/27 08:40:46;;;;;;;7.22;5.75;;;14.00;99.90;;;;;;5073832;28;20205;-51
2022/04/27 08:43:13;;;;;;;10.75;5.97;;;14.10;99.90;;;;;;5082260;28;20181;-50
2022/04/27 08:45:43;;;;;;;9.27;6.18;;;13.90;99.90;;;;;;5077609;28;20171;-50
2022/04/27 08:48:11;;;;;;;7.03;5.88;;;14.00;99.90;;;;;;5083185;28;20209;-51
2022/04/27 08:50:37;;;;;;;6.80;5.43;;;14.30;99.90;;;;;;5094234;28;20171;-51
2022/04/27 08:53:02;;;;;;;9.80;6.53;;;14.40;99.90;;;;;;5076538;28;20192;-51
2022/04/27 08:55:28;;;;;;;13.07;6.50;;;14.40;99.90;;;;;;5082536;28;20365;-47
2022/04/27 08:58:05;;;;;;;14.43;6.85;;;14.60;99.90;;;;;;5083998;28;20185;-51
2022/04/27 09:00:30;;;;;;;8.05;6.25;;;14.60;99.90;;;;;;5073405;28;20169;-52
2022/04/27 09:03:16;;;;;;;10.85;6.93;;;14.50;99.90;;;;;;5073644;28;20296;-51
2022/04/27 09:05:49;;;;;;;11.75;6.10;;;14.60;99.90;;;;;;5073279;28;20174;-50
2022/04/27 09:08:15;;;;;;;8.50;6.75;;;14.70;99.90;;;;;;5073011;28;20177;-52
2022/04/27 09:10:40;;;;;;;9.60;7.15;;;14.80;99.90;;;;;;5073024;28;20545;-52
2022/04/27 09:13:06;;;;;;;13.73;7.47;;;14.90;99.90;;;;;;5085244;28;20182;-48
2022/04/27 09:15:31;;;;;;;10.25;7.30;;;15.20;99.90;;;;;;5091845;28;20280;-48
2022/04/27 09:20:50;;;;;;;10.52;6.88;;;14.90;99.90;;;;;;5073077;28;20233;-49
2022/04/27 09:23:28;;;;;;;12.77;7.10;;;15.00;99.90;;;;;;5092941;28;20184;-47
2022/04/27 09:26:00;;;;;;;9.00;7.00;;;14.90;99.90;;;;;;5090195;28;20256;-48
2022/04/27 09:28:29;;;;;;;12.55;7.72;;;15.10;99.90;;;;;;5073095;28;20215;-51
2022/04/27 09:30:55;;;;;;;10.10;7.25;;;15.20;99.90;;;;;;5073378;28;20231;-48
2022/04/27 09:33:34;;;;;;;11.68;7.22;;;14.90;99.90;;;;;;5072732;28;20181;-51
2022/04/27 09:36:01;;;;;;;8.93;7.38;;;15.00;99.90;;;;;;5071576;28;20201;-47
2022/04/27 09:38:37;;;;;;;10.98;6.47;;;15.30;99.90;;;;;;5072870;28;20164;-46
2022/04/27 09:41:02;;;;;;;8.88;6.80;;;15.30;99.90;;;;;;5077310;28;20185;-44
2022/04/27 09:43:51;;;;;;;11.40;7.22;;;15.60;99.90;;;;;;5092858;28;20157;-44
2022/04/27 09:46:25;;;;;;;9.30;6.20;;;15.60;99.90;;;;;;5092721;28;20170;-48
2022/04/27 09:49:13;;;;;;;12.18;7.00;;;15.80;99.90;;;;;;5092702;28;20646;-47
2022/04/27 09:51:51;;;;;;;11.73;6.38;;;15.70;99.90;;;;;;5092678;28;20256;-45
2022/04/27 09:54:25;;;;;;;8.98;6.95;;;15.60;99.90;;;;;;5078905;28;20180;-45
2022/04/27 09:56:54;;;;;;;10.07;7.03;;;15.80;99.90;;;;;;5084329;28;20564;-43
2022/04/27 09:59:22;;;;;;;8.82;7.43;;;15.70;99.90;;;;;;5092574;28;20197;-44
2022/04/27 10:01:49;;;;;;;10.25;7.55;;;15.90;99.90;;;;;;5091972;28;20686;-45
2022/04/27 10:04:18;;;;;;;11.00;7.20;;;15.80;99.90;;;;;;5088989;28;20177;-46
2022/04/27 10:06:45;;;;;;;9.77;7.13;;;15.50;99.90;;;;;;5082162;28;20173;-48
2022/04/27 10:09:11;;;;;;;11.25;6.35;;;15.80;99.90;;;;;;5087736;28;20203;-46
2022/04/27 10:11:36;;;;;;;11.45;7.88;;;15.90;99.90;;;;;;5088704;28;20216;-45
2022/04/27 10:14:02;;;;;;;11.07;7.45;;;16.10;99.90;;;;;;5088210;28;20227;-45
2022/04/27 10:16:28;;;;;;;10.52;6.80;;;16.00;99.90;;;;;;5078503;28;20206;-43
2022/04/27 10:18:54;;;;;;;8.95;7.28;;;16.10;99.90;;;;;;5076732;28;20209;-48
2022/04/27 10:21:40;;;;;;;9.43;6.80;;;16.20;99.90;;;;;;5083680;28;20637;-51
2022/04/27 10:24:09;;;;;;;9.95;6.93;;;16.10;99.90;;;;;;5074262;28;20240;-48
2022/04/27 10:26:35;;;;;;;9.75;6.80;;;16.50;99.90;;;;;;5085151;28;20177;-44
2022/04/27 10:29:06;;;;;;;7.13;6.15;;;16.50;99.90;;;;;;5072066;28;20292;-44
2022/04/27 10:31:42;;;;;;;12.60;7.03;;;16.40;99.90;;;;;;5081975;28;20579;-44
2022/04/27 10:34:21;;;;;;;9.20;6.20;;;16.30;99.90;;;;;;5088804;28;20174;-49
2022/04/27 10:36:56;;;;;;;9.88;6.80;;;16.40;99.90;;;;;;5084272;28;20280;-52
2022/04/27 10:39:24;;;;;;;10.77;6.95;;;16.50;99.90;;;;;;5092327;28;20211;-52
2022/04/27 10:41:55;;;;;;;7.82;6.57;;;16.50;99.90;;;;;;5081839;28;20205;-52
2022/04/27 10:44:21;;;;;;;9.70;7.07;;;16.70;99.90;;;;;;5054152;28;20170;-52
2022/04/27 10:46:47;;;;;;;9.23;7.32;;;16.50;99.90;;;;;;5076423;28;20177;-52
2022/04/27 10:49:26;;;;;;;8.70;6.65;;;16.70;99.90;;;;;;5096174;28;20169;-52
2022/04/27 10:52:10;;;;;;;8.07;6.47;;;16.70;99.90;;;;;;5095969;28;20172;-52
2022/04/27 10:54:38;;;;;;;10.00;6.88;;;16.80;99.90;;;;;;5096454;28;20179;-52
2022/04/27 10:57:19;;;;;;;8.52;6.68;;;16.90;99.90;;;;;;5096288;28;20696;-50
2022/04/27 10:59:49;;;;;;;9.90;7.07;;;16.90;99.90;;;;;;5096092;28;20193;-51
2022/04/27 11:02:34;;;;;;;10.35;7.57;;;17.10;99.90;;;;;;5088540;28;20221;-51
2022/04/27 11:05:02;;;;;;;9.15;7.47;;;17.10;99.90;;;;;;5087044;28;20271;-52
2022/04/27 11:07:45;;;;;;;9.45;7.07;;;16.90;99.90;;;;;;5089165;28;20177;-51
2022/04/27 11:10:13;;;;;;;9.27;6.88;;;17.30;99.90;;;;;;5079670;28;20185;-51
2022/04/27 11:12:40;;;;;;;13.55;7.22;;;17.30;99.90;;;;;;5084788;28;20177;-50
2022/04/27 11:15:08;;;;;;;9.27;7.57;;;17.30;99.90;;;;;;5095620;28;20170;-52
2022/04/27 11:17:34;;;;;;;11.45;7.78;;;17.30;99.90;;;;;;5095934;28;20256;-46
2022/04/27 11:20:00;;;;;;;8.90;7.43;;;17.20;99.90;;;;;;5096004;28;20176;-44
2022/04/27 11:22:26;;;;;;;8.57;7.57;;;16.70;99.90;;;;;;5095902;28;20211;-46
2022/04/27 11:24:53;;;;;;;14.07;7.70;;;16.80;99.90;;;;;;5095616;28;20165;-45
2022/04/27 11:27:27;;;;;;;10.82;7.97;;;17.20;99.90;;;;;;5095540;28;20167;-48
2022/04/27 11:29:54;;;;;;;9.25;7.90;;;17.30;99.90;;;;;;5095775;28;20188;-44
2022/04/27 11:32:19;;;;;;;11.18;9.68;;;17.20;99.90;;;;;;5095343;28;20523;-45
2022/04/27 11:34:49;;;;;;;13.25;8.23;;;17.20;99.90;;;;;;5095637;28;20173;-44
2022/04/27 11:37:19;;;;;;;11.07;7.60;;;17.40;99.90;;;;;;5095278;28;20205;-45
2022/04/27 11:39:45;;;;;;;9.43;8.10;;;17.50;99.90;;;;;;5095102;28;20168;-44
2022/04/27 11:42:12;;;;;;;9.10;8.13;;;17.60;99.90;;;;;;5095532;28;20203;-45
2022/04/27 11:44:41;;;;;;;13.00;8.57;;;17.60;99.90;;;;;;5095546;28;20515;-50
2022/04/27 11:47:26;;;;;;;15.40;9.93;;;17.50;99.90;;;;;;5094217;28;20305;-48
2022/04/27 11:49:57;;;;;;;10.43;8.32;;;17.50;99.90;;;;;;5094963;28;20629;-49
2022/04/27 11:52:22;;;;;;;10.02;7.53;;;17.40;99.90;;;;;;5094658;28;20725;-42
2022/04/27 11:54:49;;;;;;;13.48;8.07;;;17.40;99.90;;;;;;5094432;28;20256;-43
2022/04/27 11:57:23;;;;;;;10.45;7.97;;;17.80;99.90;;;;;;5094071;28;20248;-42
2022/04/27 11:59:56;;;;;;;15.55;10.45;;;17.70;99.90;;;;;;5094503;28;20192;-42
2022/04/27 12:02:23;;;;;;;11.15;8.98;;;17.80;99.90;;;;;;5094633;28;20219;-42
2022/04/27 12:04:53;;;;;;;10.90;8.98;;;18.00;99.90;;;;;;5094336;28;20176;-43
2022/04/27 12:07:22;;;;;;;13.10;8.70;;;17.70;99.90;;;;;;5094574;28;20530;-42
2022/04/27 12:10:10;;;;;;;12.50;8.35;;;17.90;99.90;;;;;;5094249;28;20165;-42
2022/04/27 12:12:39;;;;;;;9.55;8.55;;;17.90;99.80;;;;;;5094432;28;20166;-43
2022/04/27 12:15:22;;;;;;;9.80;7.95;;;17.90;98.60;;;;;;5094243;28;20253;-43
2022/04/27 12:17:57;;;;;;;10.75;8.13;;;18.10;99.90;;;;;;5094394;28;20508;-43
2022/04/27 12:20:39;;;;;;;10.18;8.38;;;18.30;99.90;;;;;;5094791;28;20157;-45
2022/04/27 12:23:27;;;;;;;10.95;8.13;;;18.20;99.90;;;;;;5083537;28;20662;-43
2022/04/27 12:25:57;;;;;;;11.43;8.60;;;18.10;99.90;;;;;;5094542;28;20169;-42
2022/04/27 12:28:26;;;;;;;14.32;9.15;;;18.00;99.90;;;;;;5095588;28;20201;-43
2022/04/27 12:30:53;;;;;;;8.80;7.95;;;18.00;99.90;;;;;;5093932;28;20257;-42
2022/04/27 12:33:27;;;;;;;12.93;8.73;;;18.20;99.90;;;;;;5093651;28;20166;-43
2022/04/27 12:39:05;;;;;;;9.82;8.82;;;18.40;99.90;;;;;;5094175;28;20310;-42
2022/04/27 12:41:41;;;;;;;13.40;10.00;;;18.40;99.00;;;;;;5085350;28;20265;-48
2022/04/27 12:44:09;;;;;;;11.90;8.98;;;18.50;97.80;;;;;;5078575;28;20185;-47
2022/04/27 12:46:37;;;;;;;13.80;8.98;;;17.90;99.90;;;;;;5093437;28;20177;-44
2022/04/27 12:49:05;;;;;;;13.32;9.20;;;17.80;99.90;;;;;;5087170;28;20221;-46
2022/04/27 12:51:34;;;;;;;17.65;10.27;;;17.90;99.90;;;;;;5079477;28;20193;-48
2022/04/27 12:54:00;;;;;;;11.82;9.50;;;17.80;99.90;;;;;;5073481;28;20185;-44
2022/04/27 12:56:34;;;;;;;12.60;8.93;;;17.60;99.90;;;;;;5073574;28;20688;-45
2022/04/27 12:59:11;;;;;;;11.82;9.05;;;17.60;99.30;;;;;;5073670;28;20170;-45
2022/04/27 13:01:37;;;;;;;20.08;18.08;;;17.70;99.10;;;;;;5073300;28;20228;-47
2022/04/27 13:04:03;;;;;;;14.77;10.05;;;18.10;98.80;;;;;;5073156;28;20197;-44
2022/04/27 13:06:32;;;;;;;16.83;10.88;;;18.20;99.90;;;;;;5086473;28;20626;-46